CheckWX is a tool to help pilots better visualize weather data.  It is not intended as a substitute for an official pre-flight weather briefing.

17:08:27 UTC

KHQG METAR
Hugoton Municipal Airport
Hugoton, Kansas, USA
Current

33 mins ago

KHQG 211635Z AUTO 09009KT 10SM CLR 28/18 A3007 RMK AO2 T02800175
Observed
Jul-21 @ 16:35 UTC
Wind
  • 090° at 9 KTS
Visibility
10 SM
Flight Rules
VFR
Cloud Levels
  • Clear skies
Temperature
28°C / 82°F
Dewpoint
18°C / 64°F
Heat Index
29°C / 84°F
Humidity
55%
Altimeter
30.07" Hg
Pressure
1018.32 hPa
Previous

53 mins ago

KHQG 211615Z AUTO 09011G14KT 10SM CLR 28/18 A3006 RMK AO2 T02800177
Observed
Jul-21 @ 16:15 UTC
Wind
  • 090° at 11 KTS
  • Gusting to 14 KTS
Visibility
10 SM
Flight Rules
VFR
Cloud Levels
  • Clear skies
Temperature
28°C / 82°F
Dewpoint
18°C / 64°F
Heat Index
29°C / 84°F
Humidity
55%
Altimeter
30.06" Hg
Pressure
1017.92 hPa
Previous

1 hour ago

KHQG 211555Z AUTO 07009KT 10SM CLR 27/17 A3006 RMK AO2 T02700172
Observed
Jul-21 @ 15:55 UTC
Wind
  • 070° at 9 KTS
Visibility
10 SM
Flight Rules
VFR
Cloud Levels
  • Clear skies
Temperature
27°C / 81°F
Dewpoint
17°C / 63°F
Heat Index
28°C / 82°F
Humidity
54%
Altimeter
30.06" Hg
Pressure
1017.92 hPa